Time;durP1;ratioP1;P1;durP2;ratioP2;P2;SDS_P1;SDS_P2;PMS_P1;PMS_P2;Temp;Humidity;BMP_temperature;BMP_pressure;BME280_temperature;BME280_humidity;BME280_pressure;Samples;Min_cycle;Max_cycle;Signal;HPM_P1;HPM_P2
2021/11/26 00:00:06;;;;;;;62.63;26.70;;;2.80;99.90;;;;;;5090117;28;20874;-55
2021/11/26 00:02:32;;;;;;;54.90;27.52;;;2.80;99.90;;;;;;5089582;28;20389;-55
2021/11/26 00:04:58;;;;;;;59.08;27.75;;;2.90;99.90;;;;;;5072296;28;20386;-56
2021/11/26 00:07:24;;;;;;;59.25;27.52;;;2.90;99.90;;;;;;5089855;28;20457;-56
2021/11/26 00:09:51;;;;;;;57.85;27.02;;;2.90;99.90;;;;;;5089680;28;20406;-55
2021/11/26 00:12:18;;;;;;;57.40;26.60;;;2.90;99.90;;;;;;5089939;28;20414;-55
2021/11/26 00:14:50;;;;;;;59.08;28.15;;;3.40;99.90;;;;;;5089166;28;20878;-55
2021/11/26 00:17:19;;;;;;;61.60;27.25;;;2.90;99.90;;;;;;5089771;28;20933;-55
2021/11/26 00:19:46;;;;;;;61.63;28.27;;;2.90;99.90;;;;;;5089224;28;20394;-55
2021/11/26 00:22:12;;;;;;;63.03;29.10;;;2.80;99.90;;;;;;5090046;28;20816;-55
2021/11/26 00:24:37;;;;;;;62.67;28.02;;;3.30;99.90;;;;;;5089077;28;20386;-55
2021/11/26 00:27:03;;;;;;;59.33;26.83;;;2.70;99.90;;;;;;5071736;28;20867;-55
2021/11/26 00:29:29;;;;;;;59.40;27.50;;;2.70;99.90;;;;;;5088917;28;21134;-55
2021/11/26 00:31:55;;;;;;;58.33;27.88;;;2.60;99.90;;;;;;5089998;28;20394;-55
2021/11/26 00:34:20;;;;;;;61.07;26.73;;;2.10;99.90;;;;;;5089599;28;20370;-55
2021/11/26 00:36:46;;;;;;;59.77;29.10;;;2.60;99.90;;;;;;5088924;28;20385;-55
2021/11/26 00:39:12;;;;;;;61.47;28.45;;;3.70;99.90;;;;;;5088934;28;21320;-55
2021/11/26 00:41:37;;;;;;;71.37;29.23;;;2.50;99.90;;;;;;5089199;28;20867;-55
2021/11/26 00:44:04;;;;;;;61.27;26.97;;;2.80;99.90;;;;;;5071732;28;20451;-55
2021/11/26 00:46:30;;;;;;;67.65;29.70;;;2.60;99.90;;;;;;5089039;28;20421;-57
2021/11/26 00:48:55;;;;;;;61.30;27.20;;;2.60;99.90;;;;;;5089868;28;20409;-55
2021/11/26 00:51:21;;;;;;;61.55;27.40;;;4.10;99.90;;;;;;5071577;28;20390;-55
2021/11/26 00:53:47;;;;;;;59.60;27.50;;;2.60;99.90;;;;;;5088908;28;20989;-55
2021/11/26 00:56:13;;;;;;;56.70;26.80;;;2.60;99.90;;;;;;5089697;28;20382;-55
2021/11/26 00:58:38;;;;;;;56.77;28.73;;;2.70;99.90;;;;;;5089056;28;20840;-55
2021/11/26 01:01:04;;;;;;;58.13;26.60;;;3.40;99.90;;;;;;5089558;28;21395;-55
2021/11/26 01:03:30;;;;;;;62.30;28.35;;;2.60;99.90;;;;;;5070751;28;20386;-57
2021/11/26 01:05:56;;;;;;;60.33;26.95;;;2.60;99.90;;;;;;5089617;28;20382;-55
2021/11/26 01:08:22;;;;;;;65.88;29.73;;;2.60;99.90;;;;;;5089104;28;20736;-55
2021/11/26 01:10:49;;;;;;;61.00;26.90;;;2.60;99.90;;;;;;5088297;28;20910;-55
2021/11/26 01:13:16;;;;;;;59.35;28.02;;;2.60;99.90;;;;;;5089378;28;20406;-55
2021/11/26 01:15:43;;;;;;;61.03;28.27;;;4.20;99.90;;;;;;5088494;28;20386;-55
2021/11/26 01:18:09;;;;;;;59.70;27.80;;;2.60;99.90;;;;;;5089429;28;20472;-55
2021/11/26 01:20:36;;;;;;;61.80;29.55;;;2.60;99.90;;;;;;5088291;28;20856;-55
2021/11/26 01:23:02;;;;;;;60.60;27.65;;;2.60;99.90;;;;;;5089101;28;20390;-55
2021/11/26 01:25:28;;;;;;;60.70;27.70;;;2.70;99.90;;;;;;5088724;28;20471;-56
2021/11/26 01:27:55;;;;;;;62.58;28.60;;;2.60;99.90;;;;;;5088697;28;20844;-55
2021/11/26 01:30:30;;;;;;;58.20;26.65;;;2.50;99.90;;;;;;5088674;28;20413;-55
2021/11/26 01:32:59;;;;;;;59.13;27.58;;;2.60;99.90;;;;;;5088792;28;20862;-55
2021/11/26 01:35:24;;;;;;;62.03;27.85;;;3.10;99.90;;;;;;5089011;28;20386;-55
2021/11/26 01:37:50;;;;;;;64.05;28.30;;;2.70;99.90;;;;;;5067823;28;20474;-55
2021/11/26 01:40:18;;;;;;;57.13;26.88;;;2.70;99.90;;;;;;5088530;28;20390;-55
2021/11/26 01:42:45;;;;;;;65.55;28.33;;;2.80;99.90;;;;;;5088270;28;20453;-55
2021/11/26 01:45:11;;;;;;;60.70;27.92;;;2.70;99.90;;;;;;5088823;28;20377;-55
2021/11/26 01:47:37;;;;;;;63.70;28.70;;;2.80;99.90;;;;;;5070145;28;20847;-55
2021/11/26 01:50:05;;;;;;;62.83;28.67;;;3.90;99.90;;;;;;5088900;28;20460;-55
2021/11/26 01:52:31;;;;;;;60.08;27.70;;;2.60;99.90;;;;;;5091824;28;20452;-57
2021/11/26 01:54:57;;;;;;;65.00;27.98;;;2.70;99.90;;;;;;5092734;28;20365;-55
2021/11/26 01:57:23;;;;;;;64.00;27.77;;;4.20;99.90;;;;;;5074889;28;20458;-53
2021/11/26 01:59:50;;;;;;;63.28;27.42;;;3.30;99.90;;;;;;5091916;28;20443;-53
2021/11/26 02:02:17;;;;;;;63.88;28.55;;;2.60;99.90;;;;;;5092942;28;20466;-55
2021/11/26 02:04:43;;;;;;;59.58;26.30;;;2.60;99.90;;;;;;5092315;28;20812;-55
2021/11/26 02:07:09;;;;;;;59.65;27.58;;;3.90;99.90;;;;;;5092632;28;20401;-53
2021/11/26 02:09:34;;;;;;;61.92;26.25;;;2.60;99.90;;;;;;5091798;28;20397;-56
2021/11/26 02:12:00;;;;;;;60.42;28.63;;;4.00;99.90;;;;;;5092680;28;20406;-55
2021/11/26 02:14:25;;;;;;;56.70;27.03;;;2.60;99.90;;;;;;5092571;28;20823;-55
2021/11/26 02:16:52;;;;;;;58.58;26.63;;;3.50;99.90;;;;;;5086188;28;20411;-55
2021/11/26 02:19:24;;;;;;;66.18;28.90;;;4.30;99.90;;;;;;5088698;28;20382;-55
2021/11/26 02:21:49;;;;;;;58.67;29.30;;;2.80;99.90;;;;;;5091785;28;20378;-55
2021/11/26 02:24:15;;;;;;;60.42;28.35;;;2.70;99.90;;;;;;5092555;28;20708;-55
2021/11/26 02:26:43;;;;;;;61.37;27.70;;;2.70;99.90;;;;;;5091447;28;20378;-55
2021/11/26 02:29:11;;;;;;;62.93;28.93;;;2.70;99.90;;;;;;5092719;28;20402;-55
2021/11/26 02:31:37;;;;;;;63.13;26.83;;;2.70;99.90;;;;;;5091193;28;20426;-55
2021/11/26 02:34:04;;;;;;;59.97;27.95;;;2.80;99.90;;;;;;5092416;28;20483;-56
2021/11/26 02:36:30;;;;;;;59.92;27.70;;;2.70;99.90;;;;;;5091992;28;20734;-55
2021/11/26 02:38:56;;;;;;;60.10;27.70;;;3.90;99.90;;;;;;5091370;28;20500;-55
2021/11/26 02:41:22;;;;;;;65.38;27.40;;;2.70;99.90;;;;;;5092007;28;20390;-56
2021/11/26 02:43:48;;;;;;;60.00;26.65;;;4.10;99.90;;;;;;5091211;28;20879;-56
2021/11/26 02:46:14;;;;;;;63.53;27.77;;;2.70;99.90;;;;;;5091663;28;20386;-55
2021/11/26 02:48:39;;;;;;;57.33;26.58;;;4.30;99.90;;;;;;5090782;28;20459;-56
2021/11/26 02:51:05;;;;;;;55.43;25.67;;;2.60;99.90;;;;;;5092033;28;20843;-55
2021/11/26 02:53:31;;;;;;;58.07;26.27;;;4.10;99.90;;;;;;5091690;28;20421;-55
2021/11/26 02:55:57;;;;;;;57.67;26.50;;;2.70;99.90;;;;;;5091057;28;20686;-55
2021/11/26 02:58:23;;;;;;;55.10;25.97;;;2.70;99.90;;;;;;5091711;28;20982;-55
2021/11/26 03:00:53;;;;;;;60.90;27.02;;;3.00;99.90;;;;;;5090934;28;20470;-55
2021/11/26 03:03:19;;;;;;;57.33;25.88;;;2.70;99.90;;;;;;5090448;28;20381;-55
2021/11/26 03:05:44;;;;;;;60.15;26.95;;;2.70;99.90;;;;;;5091415;28;20377;-55
2021/11/26 03:08:11;;;;;;;61.33;27.33;;;2.70;99.90;;;;;;5091532;28;20386;-55
2021/11/26 03:10:37;;;;;;;58.35;26.48;;;3.90;99.90;;;;;;5091039;28;20417;-56
2021/11/26 03:13:09;;;;;;;60.60;26.42;;;4.00;99.90;;;;;;5091256;28;20421;-55
2021/11/26 03:15:37;;;;;;;62.10;27.60;;;2.70;99.90;;;;;;5091775;28;20423;-57
2021/11/26 03:18:04;;;;;;;59.72;27.40;;;4.40;99.90;;;;;;5091247;28;20465;-55
2021/11/26 03:20:30;;;;;;;60.00;27.60;;;2.70;99.90;;;;;;5091395;28;20401;-55
2021/11/26 03:22:57;;;;;;;55.87;26.80;;;2.70;99.90;;;;;;5090310;28;20449;-55
2021/11/26 03:25:24;;;;;;;62.28;27.05;;;2.70;99.90;;;;;;5091582;28;20378;-55
2021/11/26 03:27:50;;;;;;;59.63;26.40;;;2.60;99.90;;;;;;5089299;28;20482;-55
2021/11/26 03:30:18;;;;;;;62.00;28.00;;;2.60;99.90;;;;;;5091128;28;20493;-55
2021/11/26 03:32:45;;;;;;;58.53;27.52;;;2.80;99.90;;;;;;5090457;28;20438;-55
2021/11/26 03:35:11;;;;;;;59.50;26.10;;;2.70;99.90;;;;;;5091483;28;20398;-55
2021/11/26 03:37:37;;;;;;;58.63;27.75;;;3.80;99.90;;;;;;5090577;28;21046;-57
2021/11/26 03:40:05;;;;;;;57.88;26.45;;;2.80;99.90;;;;;;5090863;28;20511;-55
2021/11/26 03:42:31;;;;;;;60.80;26.40;;;2.80;99.90;;;;;;5091081;28;20386;-55
2021/11/26 03:44:57;;;;;;;55.38;26.27;;;2.80;99.90;;;;;;5090326;28;20466;-55
2021/11/26 03:47:23;;;;;;;60.00;26.73;;;2.80;99.90;;;;;;5090984;28;20723;-55
2021/11/26 03:49:49;;;;;;;59.78;25.63;;;4.00;99.90;;;;;;5072053;28;20480;-55
2021/11/26 03:52:15;;;;;;;59.70;25.00;;;2.70;99.90;;;;;;5090639;28;20548;-55
2021/11/26 03:54:42;;;;;;;58.03;25.97;;;3.10;99.90;;;;;;5090127;28;20762;-56
2021/11/26 03:57:08;;;;;;;58.47;27.75;;;2.60;99.90;;;;;;5090886;28;20374;-55
2021/11/26 03:59:33;;;;;;;60.70;27.00;;;2.70;99.90;;;;;;5090597;28;20400;-55
2021/11/26 04:01:59;;;;;;;56.40;27.08;;;4.00;99.90;;;;;;5089640;28;20377;-55
2021/11/26 04:04:25;;;;;;;57.35;25.80;;;2.70;99.90;;;;;;5090675;28;20532;-55
2021/11/26 04:06:50;;;;;;;57.77;25.60;;;2.70;99.90;;;;;;5089575;28;20743;-55
2021/11/26 04:09:17;;;;;;;67.07;27.90;;;3.70;99.90;;;;;;5090260;28;20410;-55
2021/11/26 04:11:43;;;;;;;60.13;27.75;;;2.70;99.90;;;;;;5085182;28;20415;-56
2021/11/26 04:14:11;;;;;;;57.38;27.05;;;2.70;99.90;;;;;;5069685;28;20380;-55
2021/11/26 04:16:36;;;;;;;63.78;26.75;;;2.80;99.90;;;;;;5070068;28;20376;-55
2021/11/26 04:19:03;;;;;;;61.15;26.88;;;2.70;99.90;;;;;;5069293;28;20438;-55
2021/11/26 04:21:29;;;;;;;61.70;26.80;;;2.70;99.90;;;;;;5069855;28;20391;-55
2021/11/26 04:23:56;;;;;;;60.40;27.15;;;3.00;99.90;;;;;;5069096;28;20448;-55
2021/11/26 04:26:22;;;;;;;63.08;26.77;;;2.80;99.90;;;;;;5069854;28;20395;-55
2021/11/26 04:28:48;;;;;;;61.63;26.83;;;2.80;99.90;;;;;;5069298;28;20378;-56
2021/11/26 04:31:14;;;;;;;61.10;27.20;;;2.80;99.90;;;;;;5065756;28;20395;-55
2021/11/26 04:33:40;;;;;;;60.70;26.87;;;3.10;99.90;;;;;;5069664;28;20489;-56
2021/11/26 04:36:05;;;;;;;61.28;26.15;;;2.80;99.90;;;;;;5069236;28;20411;-55
2021/11/26 04:38:32;;;;;;;59.55;26.02;;;2.70;99.90;;;;;;5069481;28;20433;-55
2021/11/26 04:40:58;;;;;;;58.17;26.42;;;2.70;99.90;;;;;;5059507;28;20457;-53
2021/11/26 04:43:24;;;;;;;59.87;28.30;;;2.80;99.90;;;;;;5049547;28;20852;-56
2021/11/26 04:45:51;;;;;;;61.05;27.65;;;2.80;99.90;;;;;;5055622;28;20912;-56
2021/11/26 04:48:21;;;;;;;60.60;26.58;;;3.60;99.90;;;;;;5069123;28;20531;-56
2021/11/26 04:50:48;;;;;;;55.55;25.92;;;2.90;99.90;;;;;;5060690;28;20502;-56
2021/11/26 04:53:15;;;;;;;58.47;26.35;;;2.90;99.90;;;;;;5057542;28;20388;-56
2021/11/26 04:55:40;;;;;;;59.10;27.33;;;2.80;99.90;;;;;;5060642;28;20874;-56
2021/11/26 04:58:06;;;;;;;61.17;27.13;;;3.50;99.90;;;;;;5057277;28;20393;-55
2021/11/26 05:00:32;;;;;;;61.13;27.60;;;2.90;99.90;;;;;;5058622;28;20380;-53
2021/11/26 05:02:57;;;;;;;64.17;27.57;;;2.90;99.90;;;;;;5059080;28;20400;-56
2021/11/26 05:05:23;;;;;;;55.85;26.33;;;3.00;99.90;;;;;;5057695;28;20386;-55
2021/11/26 05:07:49;;;;;;;58.03;25.90;;;2.80;99.90;;;;;;5040411;28;20745;-55
2021/11/26 05:10:18;;;;;;;54.45;25.35;;;2.90;99.90;;;;;;5059154;28;20508;-55
2021/11/26 05:13:18;;;;;;;58.83;26.35;;;3.00;99.90;;;;;;5071600;28;20602;-57
2021/11/26 05:15:36;;;;;;;59.20;25.50;;;2.10;99.90;;;;;;5074245;28;20394;-55
2021/11/26 05:18:04;;;;;;;63.60;26.83;;;3.00;99.90;;;;;;5077428;28;20387;-55
2021/11/26 05:20:32;;;;;;;61.63;25.98;;;4.60;99.90;;;;;;5057534;28;20868;-55
2021/11/26 05:22:58;;;;;;;60.38;25.63;;;3.00;99.90;;;;;;5079610;28;20443;-55
2021/11/26 05:25:24;;;;;;;57.95;25.90;;;3.10;99.90;;;;;;5078878;28;20384;-55
2021/11/26 05:27:51;;;;;;;64.80;27.85;;;3.10;99.90;;;;;;5078551;28;20382;-55
2021/11/26 05:30:17;;;;;;;58.03;27.20;;;3.10;99.90;;;;;;5074091;28;20750;-55
2021/11/26 05:32:43;;;;;;;59.53;26.85;;;3.10;99.90;;;;;;5080462;28;20388;-56
2021/11/26 05:35:12;;;;;;;66.10;27.00;;;3.00;99.90;;;;;;5083027;28;20758;-55
2021/11/26 05:37:39;;;;;;;61.83;27.73;;;3.10;99.90;;;;;;5084290;28;20379;-55
2021/11/26 05:40:06;;;;;;;56.83;25.80;;;3.10;99.90;;;;;;5076982;28;20414;-55
2021/11/26 05:42:32;;;;;;;59.33;27.63;;;3.10;99.90;;;;;;5078478;28;20386;-55
2021/11/26 05:44:58;;;;;;;59.78;25.88;;;3.10;99.90;;;;;;5083134;28;20876;-55
2021/11/26 05:47:24;;;;;;;55.63;26.15;;;3.70;99.90;;;;;;5077282;28;20940;-55
2021/11/26 05:49:50;;;;;;;59.47;25.67;;;3.10;99.90;;;;;;5080809;28;20444;-55
2021/11/26 05:52:15;;;;;;;57.23;25.83;;;3.10;99.90;;;;;;5078592;28;20759;-55
2021/11/26 05:54:41;;;;;;;58.03;26.13;;;3.20;99.90;;;;;;5077801;28;20395;-56
2021/11/26 05:57:07;;;;;;;55.40;25.38;;;4.50;99.90;;;;;;5069614;28;21755;-56
2021/11/26 05:59:32;;;;;;;59.80;25.27;;;3.70;99.90;;;;;;5068580;28;20479;-55
2021/11/26 06:01:58;;;;;;;56.83;25.57;;;3.20;99.90;;;;;;5079695;28;20382;-55
2021/11/26 06:04:30;;;;;;;57.50;26.27;;;3.20;99.90;;;;;;5072481;28;20420;-55
2021/11/26 06:06:56;;;;;;;59.20;25.50;;;4.20;99.90;;;;;;5079630;28;20385;-55
2021/11/26 06:09:21;;;;;;;53.03;25.67;;;3.00;99.90;;;;;;5068335;28;20902;-55
2021/11/26 06:11:47;;;;;;;54.90;24.65;;;3.10;99.90;;;;;;5049640;28;20414;-57
2021/11/26 06:14:14;;;;;;;56.67;25.42;;;3.10;99.90;;;;;;5077202;28;20871;-55
2021/11/26 06:16:39;;;;;;;54.60;25.50;;;4.60;99.90;;;;;;5087196;28;20378;-55
2021/11/26 06:19:05;;;;;;;56.75;25.70;;;3.00;99.90;;;;;;5075910;28;20389;-55
2021/11/26 06:21:31;;;;;;;56.60;24.73;;;3.10;99.90;;;;;;5087250;28;20382;-55
2021/11/26 06:23:56;;;;;;;54.63;24.57;;;3.10;99.90;;;;;;5082976;28;20420;-56
2021/11/26 06:26:25;;;;;;;58.95;26.48;;;3.10;99.90;;;;;;5074322;28;20418;-55
2021/11/26 06:28:51;;;;;;;56.65;27.15;;;3.10;99.90;;;;;;5076301;28;20516;-55
2021/11/26 06:31:16;;;;;;;57.78;25.83;;;3.10;99.90;;;;;;5079140;28;20820;-55
2021/11/26 06:33:42;;;;;;;59.45;26.58;;;3.70;99.90;;;;;;5079332;28;20727;-55
2021/11/26 06:36:08;;;;;;;53.17;24.63;;;3.20;99.90;;;;;;5081599;28;21011;-55
2021/11/26 06:38:33;;;;;;;60.33;25.23;;;3.10;99.90;;;;;;5082074;28;20920;-55
2021/11/26 06:40:59;;;;;;;56.63;25.13;;;3.00;99.90;;;;;;5089738;28;20521;-55
2021/11/26 06:43:25;;;;;;;58.30;25.27;;;3.00;99.90;;;;;;5091096;28;20413;-55
2021/11/26 06:45:50;;;;;;;58.97;25.87;;;3.40;99.90;;;;;;5090629;28;20393;-54
2021/11/26 06:48:16;;;;;;;62.10;26.90;;;3.00;99.90;;;;;;5091798;28;20374;-54
2021/11/26 06:50:42;;;;;;;56.97;25.70;;;3.10;99.90;;;;;;5091853;28;20415;-54
2021/11/26 06:53:08;;;;;;;56.07;24.37;;;3.00;99.90;;;;;;5091317;28;20366;-54
2021/11/26 06:55:33;;;;;;;58.85;25.33;;;3.10;99.90;;;;;;5092026;28;20436;-54
2021/11/26 06:57:59;;;;;;;55.47;25.25;;;3.30;99.90;;;;;;5091433;28;20819;-54
2021/11/26 07:00:25;;;;;;;57.90;26.10;;;3.20;99.90;;;;;;5091772;28;20389;-54
2021/11/26 07:02:51;;;;;;;59.05;26.35;;;3.30;99.90;;;;;;5091438;28;20455;-54
2021/11/26 07:05:17;;;;;;;57.73;25.20;;;3.30;99.90;;;;;;5079198;28;20873;-54
2021/11/26 07:07:43;;;;;;;54.95;24.67;;;4.80;99.90;;;;;;5083298;28;20390;-54
2021/11/26 07:10:10;;;;;;;57.38;25.00;;;3.30;99.90;;;;;;5080492;28;20422;-54
2021/11/26 07:12:36;;;;;;;59.05;25.77;;;3.40;99.90;;;;;;5053126;28;20403;-54
2021/11/26 07:15:04;;;;;;;52.75;24.48;;;3.40;99.90;;;;;;5086160;28;20938;-54
2021/11/26 07:17:30;;;;;;;55.42;24.88;;;3.40;99.90;;;;;;5091447;28;20865;-56
2021/11/26 07:19:55;;;;;;;51.60;23.55;;;3.40;99.90;;;;;;5090916;28;20397;-55
2021/11/26 07:22:21;;;;;;;53.03;24.53;;;3.50;99.90;;;;;;5085775;28;20840;-54
2021/11/26 07:24:47;;;;;;;54.80;24.02;;;4.40;99.90;;;;;;5071199;28;20371;-56
2021/11/26 07:27:13;;;;;;;49.85;22.80;;;3.60;99.90;;;;;;5070519;28;20380;-54
2021/11/26 07:29:39;;;;;;;52.42;24.10;;;3.60;99.90;;;;;;5071281;28;20465;-54
2021/11/26 07:32:06;;;;;;;56.67;25.10;;;4.60;99.90;;;;;;5070119;28;20905;-54
2021/11/26 07:34:33;;;;;;;50.30;23.15;;;3.60;99.90;;;;;;5071251;28;20849;-54
2021/11/26 07:36:59;;;;;;;52.92;23.40;;;3.50;99.90;;;;;;5069595;28;20885;-54
2021/11/26 07:39:32;;;;;;;50.80;22.60;;;4.80;99.90;;;;;;5076558;28;20388;-54
2021/11/26 07:41:57;;;;;;;54.40;23.13;;;3.50;99.90;;;;;;5090503;28;20398;-54
2021/11/26 07:44:23;;;;;;;47.93;21.83;;;4.10;99.90;;;;;;5091259;28;20451;-54
2021/11/26 07:46:49;;;;;;;52.10;23.15;;;3.50;99.90;;;;;;5090895;28;20366;-54
2021/11/26 07:49:14;;;;;;;55.50;24.63;;;4.20;99.90;;;;;;5089565;28;20406;-54
2021/11/26 07:51:40;;;;;;;48.15;21.30;;;3.80;99.90;;;;;;5090822;28;20421;-54
2021/11/26 07:54:06;;;;;;;51.90;23.50;;;3.60;99.90;;;;;;5089854;28;20362;-54
2021/11/26 07:56:35;;;;;;;46.15;22.15;;;3.70;99.90;;;;;;5090616;28;20378;-54
2021/11/26 07:59:01;;;;;;;44.70;21.40;;;3.80;99.90;;;;;;5090028;28;20374;-54
2021/11/26 08:01:26;;;;;;;45.97;22.55;;;3.70;99.90;;;;;;5090299;28;20378;-54
2021/11/26 08:03:52;;;;;;;50.17;23.25;;;3.70;99.90;;;;;;5090569;28;20370;-55
2021/11/26 08:06:17;;;;;;;51.60;22.63;;;3.10;99.90;;;;;;5089869;28;20878;-54
2021/11/26 08:08:43;;;;;;;52.50;23.13;;;4.00;99.90;;;;;;5090538;28;20767;-54
2021/11/26 08:11:09;;;;;;;51.47;22.30;;;3.60;99.90;;;;;;5089916;28;20932;-54
2021/11/26 08:13:35;;;;;;;51.40;22.33;;;4.60;99.90;;;;;;5066685;28;20835;-54
2021/11/26 08:16:01;;;;;;;48.15;22.00;;;3.50;99.90;;;;;;5069294;28;20371;-55
2021/11/26 08:18:26;;;;;;;50.70;22.92;;;3.50;99.90;;;;;;5070289;28;20433;-54
2021/11/26 08:20:52;;;;;;;50.17;21.97;;;2.60;99.90;;;;;;5069567;28;20480;-55
2021/11/26 08:23:18;;;;;;;51.50;22.47;;;4.20;99.90;;;;;;5069424;28;20383;-54
2021/11/26 08:25:43;;;;;;;51.13;22.95;;;3.70;99.90;;;;;;5070121;28;20375;-54
2021/11/26 08:28:09;;;;;;;50.60;23.73;;;3.70;99.90;;;;;;5051188;28;20394;-54
2021/11/26 08:30:35;;;;;;;47.92;21.95;;;3.80;99.90;;;;;;5069771;28;20801;-54
2021/11/26 08:33:01;;;;;;;49.50;21.65;;;3.80;99.90;;;;;;5068864;28;20403;-55
2021/11/26 08:35:27;;;;;;;48.30;21.85;;;3.80;99.90;;;;;;5069853;28;20384;-54
2021/11/26 08:37:54;;;;;;;49.65;22.23;;;4.00;99.90;;;;;;5069467;28;20656;-55
2021/11/26 08:40:20;;;;;;;51.90;21.52;;;4.00;99.90;;;;;;5069298;28;20391;-54
2021/11/26 08:42:47;;;;;;;43.67;21.15;;;4.00;99.90;;;;;;5069577;28;20383;-54
2021/11/26 08:45:13;;;;;;;45.90;20.98;;;4.20;99.90;;;;;;5069005;28;20391;-54
2021/11/26 08:47:41;;;;;;;50.35;23.08;;;4.00;99.90;;;;;;5069569;28;20380;-54
2021/11/26 08:50:10;;;;;;;45.88;21.67;;;3.90;99.90;;;;;;5068723;28;20419;-54
2021/11/26 08:52:35;;;;;;;46.38;21.88;;;3.80;99.90;;;;;;5069173;28;20384;-55
2021/11/26 08:55:03;;;;;;;48.30;22.52;;;3.90;99.90;;;;;;5068939;28;20375;-55
2021/11/26 08:57:29;;;;;;;44.60;20.40;;;5.10;99.90;;;;;;5069249;28;20442;-54
2021/11/26 08:59:55;;;;;;;44.20;21.13;;;3.80;99.90;;;;;;5050880;28;20875;-56
2021/11/26 09:02:21;;;;;;;45.20;19.75;;;3.80;99.90;;;;;;5068817;28;20403;-54
2021/11/26 09:04:47;;;;;;;39.83;19.88;;;3.90;99.90;;;;;;5069406;28;20380;-54
2021/11/26 09:07:13;;;;;;;42.40;19.67;;;3.90;99.90;;;;;;5068105;28;20408;-54
2021/11/26 09:09:38;;;;;;;43.50;20.20;;;3.90;99.90;;;;;;5068889;28;20465;-54
2021/11/26 09:12:05;;;;;;;42.25;19.48;;;3.80;99.90;;;;;;5050322;28;20414;-54
2021/11/26 09:14:32;;;;;;;45.95;21.20;;;3.80;99.90;;;;;;5082505;28;20393;-54
2021/11/26 09:16:57;;;;;;;43.30;19.95;;;3.80;99.90;;;;;;5089101;28;20390;-56
2021/11/26 09:19:23;;;;;;;44.03;20.25;;;3.70;99.90;;;;;;5088909;28;20423;-54
2021/11/26 09:21:49;;;;;;;44.80;19.87;;;3.60;99.90;;;;;;5089557;28;20724;-54
2021/11/26 09:24:15;;;;;;;42.33;20.20;;;3.70;99.90;;;;;;5088235;28;20389;-54
2021/11/26 09:26:40;;;;;;;46.38;21.40;;;4.00;99.90;;;;;;5089074;28;20414;-54
2021/11/26 09:29:06;;;;;;;44.80;20.60;;;4.00;99.90;;;;;;5088079;28;20949;-54
2021/11/26 09:31:32;;;;;;;44.83;20.55;;;3.90;99.90;;;;;;5089116;28;20370;-54
2021/11/26 09:33:58;;;;;;;43.25;20.38;;;3.90;99.90;;;;;;5088579;28;20720;-56
2021/11/26 09:36:26;;;;;;;42.95;19.88;;;4.10;99.90;;;;;;5088651;28;20370;-54
2021/11/26 09:38:52;;;;;;;52.33;21.20;;;4.10;99.90;;;;;;5088912;28;20381;-54
2021/11/26 09:41:18;;;;;;;45.28;20.20;;;4.30;99.90;;;;;;5087891;28;21005;-54
2021/11/26 09:43:49;;;;;;;42.83;19.43;;;4.40;99.90;;;;;;5088834;28;20463;-54
2021/11/26 09:46:18;;;;;;;41.58;20.00;;;4.50;99.90;;;;;;5088176;28;20451;-54
2021/11/26 09:48:43;;;;;;;42.33;20.67;;;4.40;99.90;;;;;;5071055;28;20374;-54
2021/11/26 09:51:10;;;;;;;41.53;21.13;;;4.40;99.90;;;;;;5087888;28;20413;-55
2021/11/26 09:53:36;;;;;;;42.30;19.77;;;4.40;99.90;;;;;;5088620;28;20439;-54
2021/11/26 09:56:05;;;;;;;39.67;19.60;;;4.80;99.90;;;;;;5088017;28;20374;-55
2021/11/26 09:58:32;;;;;;;39.35;18.77;;;4.30;99.90;;;;;;5088641;28;20439;-54
2021/11/26 10:01:00;;;;;;;42.80;19.60;;;4.40;99.90;;;;;;5088407;28;20385;-55
2021/11/26 10:03:40;;;;;;;38.83;19.40;;;4.40;99.90;;;;;;5088416;28;20417;-55
2021/11/26 10:06:30;;;;;;;44.80;19.73;;;4.60;99.90;;;;;;5087612;28;20382;-55
2021/11/26 10:09:16;;;;;;;38.42;18.83;;;4.60;99.90;;;;;;5088355;28;20444;-54
2021/11/26 10:11:57;;;;;;;37.60;18.95;;;4.80;99.90;;;;;;5088774;28;20406;-54
2021/11/26 10:14:26;;;;;;;34.78;17.92;;;4.80;99.90;;;;;;5079096;28;20391;-54
2021/11/26 10:17:17;;;;;;;40.90;18.42;;;4.80;99.90;;;;;;5072042;28;20504;-55
2021/11/26 10:19:47;;;;;;;39.40;18.20;;;4.80;99.90;;;;;;5072212;28;20388;-54
2021/11/26 10:22:17;;;;;;;39.40;19.33;;;4.80;99.90;;;;;;5071298;28;20383;-55
2021/11/26 10:24:54;;;;;;;38.17;17.42;;;5.00;99.90;;;;;;5072252;28;20376;-54
2021/11/26 10:27:31;;;;;;;48.58;25.70;;;4.80;99.90;;;;;;5053511;28;21078;-55
2021/11/26 10:30:07;;;;;;;39.20;19.00;;;4.60;99.90;;;;;;5072099;28;20911;-54
2021/11/26 10:32:32;;;;;;;40.00;18.93;;;4.50;99.90;;;;;;5072223;28;20754;-55
2021/11/26 10:34:58;;;;;;;42.90;19.77;;;4.50;99.90;;;;;;5071777;28;20937;-55
2021/11/26 10:37:23;;;;;;;48.80;24.08;;;4.50;99.90;;;;;;5070710;28;20380;-54
2021/11/26 10:39:49;;;;;;;43.17;20.70;;;4.40;99.90;;;;;;5071368;28;20737;-54
2021/11/26 10:42:28;;;;;;;44.28;21.00;;;4.40;99.90;;;;;;5071071;28;20390;-54
2021/11/26 10:45:04;;;;;;;39.90;19.25;;;4.40;99.90;;;;;;5071949;28;20375;-54
2021/11/26 10:48:04;;;;;;;44.22;21.38;;;4.60;99.90;;;;;;5071891;28;20753;-54
2021/11/26 10:56:47;;;;;;;43.67;20.23;;;4.60;99.90;;;;;;5071521;28;20702;-54
2021/11/26 10:58:49;;;;;;;39.95;19.95;;;4.80;99.90;;;;;;5070950;28;20769;-54
2021/11/26 11:01:15;;;;;;;42.13;18.83;;;4.60;99.90;;;;;;5070719;28;20407;-54
2021/11/26 11:03:42;;;;;;;42.45;20.80;;;4.60;99.90;;;;;;5071324;28;20745;-54
2021/11/26 11:06:21;;;;;;;45.03;20.83;;;4.70;99.90;;;;;;5070416;28;21242;-55
2021/11/26 11:09:05;;;;;;;37.90;18.92;;;6.20;99.90;;;;;;5071043;28;20459;-54
2021/11/26 11:11:31;;;;;;;43.50;21.25;;;4.60;99.90;;;;;;5070811;28;20494;-54
2021/11/26 11:13:58;;;;;;;46.25;21.90;;;4.70;99.90;;;;;;5079776;28;21046;-54
2021/11/26 11:16:24;;;;;;;49.15;25.15;;;5.40;99.90;;;;;;5090468;28;20431;-54
2021/11/26 11:18:50;;;;;;;70.90;32.90;;;4.60;99.90;;;;;;5091687;28;20411;-54
2021/11/26 11:21:16;;;;;;;104.50;45.37;;;4.60;99.90;;;;;;5072361;28;20468;-54
2021/11/26 11:23:42;;;;;;;83.97;44.40;;;4.60;99.90;;;;;;5089736;28;20912;-54
2021/11/26 11:26:08;;;;;;;56.40;25.77;;;4.70;99.90;;;;;;5090123;28;20694;-55
2021/11/26 11:28:34;;;;;;;52.03;23.95;;;4.70;99.90;;;;;;5091176;28;20832;-54
2021/11/26 11:31:00;;;;;;;45.72;22.00;;;5.10;99.90;;;;;;5090959;28;20398;-54
2021/11/26 11:33:27;;;;;;;52.42;24.00;;;4.60;99.90;;;;;;5090335;28;20622;-54
2021/11/26 11:36:03;;;;;;;141.88;50.55;;;4.50;99.90;;;;;;5090805;28;20378;-54
2021/11/26 11:38:29;;;;;;;58.65;27.08;;;4.60;99.90;;;;;;5089913;28;20874;-54
2021/11/26 11:41:01;;;;;;;50.03;21.93;;;4.60;99.90;;;;;;5090284;28;20481;-54
2021/11/26 11:43:27;;;;;;;77.38;33.20;;;4.70;99.90;;;;;;5090185;28;20734;-54
2021/11/26 11:46:05;;;;;;;45.50;19.85;;;4.60;99.90;;;;;;5090950;28;20875;-54
2021/11/26 11:48:34;;;;;;;40.38;19.13;;;5.10;99.90;;;;;;5090819;28;20435;-54
2021/11/26 11:51:01;;;;;;;46.78;20.77;;;4.50;99.90;;;;;;5090343;28;20413;-54
2021/11/26 11:53:31;;;;;;;167.10;62.20;;;4.50;99.90;;;;;;5090002;28;20370;-54
2021/11/26 11:56:08;;;;;;;52.42;21.77;;;4.50;99.90;;;;;;5090544;28;20405;-54
2021/11/26 11:59:05;;;;;;;44.40;19.50;;;4.60;99.90;;;;;;5090618;28;20393;-54
2021/11/26 12:01:34;;;;;;;55.90;25.10;;;4.60;99.90;;;;;;5073634;28;20393;-54
2021/11/26 12:04:16;;;;;;;55.75;25.02;;;5.10;99.90;;;;;;5090415;28;20382;-55
2021/11/26 12:06:44;;;;;;;69.03;35.35;;;4.70;99.90;;;;;;5090321;28;20375;-54
2021/11/26 12:09:22;;;;;;;48.97;23.88;;;4.90;99.90;;;;;;5071481;28;20748;-54
2021/11/26 12:11:54;;;;;;;50.00;26.17;;;4.30;99.90;;;;;;5089818;28;20434;-54
2021/11/26 12:14:21;;;;;;;43.70;19.85;;;5.20;99.90;;;;;;5076944;28;20440;-54
2021/11/26 12:17:16;;;;;;;41.75;19.60;;;5.00;99.90;;;;;;5070031;28;20913;-54
2021/11/26 12:19:43;;;;;;;47.38;21.40;;;4.90;99.90;;;;;;5069854;28;20396;-54
2021/11/26 12:22:17;;;;;;;41.78;20.05;;;4.80;99.90;;;;;;5069100;28;20858;-56
2021/11/26 12:24:47;;;;;;;81.45;33.90;;;4.80;99.90;;;;;;5069911;28;20379;-55
2021/11/26 12:27:25;;;;;;;65.88;29.40;;;4.80;99.90;;;;;;5069093;28;20376;-54
2021/11/26 12:29:52;;;;;;;60.00;26.23;;;5.00;99.90;;;;;;5069399;28;20813;-54
2021/11/26 12:32:27;;;;;;;47.53;21.13;;;5.00;99.90;;;;;;5069073;28;20425;-54
2021/11/26 12:34:57;;;;;;;111.20;44.03;;;5.00;99.90;;;;;;5051235;28;20434;-54
2021/11/26 12:37:33;;;;;;;62.25;25.67;;;5.10;99.90;;;;;;5068962;28;20384;-54
2021/11/26 12:40:04;;;;;;;91.15;40.42;;;5.10;99.90;;;;;;5069318;28;20461;-54
2021/11/26 12:42:31;;;;;;;61.40;26.65;;;5.20;99.90;;;;;;5050384;28;20388;-54